Time;durP1;ratioP1;P1;durP2;ratioP2;P2;SDS_P1;SDS_P2;PMS_P1;PMS_P2;Temp;Humidity;BMP_temperature;BMP_pressure;BME280_temperature;BME280_humidity;BME280_pressure;Samples;Min_cycle;Max_cycle;Signal;HPM_P1;HPM_P2
2023/06/25 00:00:28;;;;;;;10.55;9.45;;;19.00;99.90;;;;;;5035606;28;20037;-81
2023/06/25 00:02:54;;;;;;;10.27;9.25;;;19.00;99.90;;;;;;5054658;28;20057;-81
2023/06/25 00:05:21;;;;;;;10.48;9.38;;;19.20;99.90;;;;;;5054640;28;20102;-81
2023/06/25 00:07:46;;;;;;;10.90;9.83;;;19.00;99.90;;;;;;5055215;28;20106;-81
2023/06/25 00:10:12;;;;;;;9.43;8.27;;;18.90;99.90;;;;;;5051002;28;20076;-81
2023/06/25 00:12:38;;;;;;;10.10;9.20;;;18.90;99.90;;;;;;5051994;28;20041;-81
2023/06/25 00:15:05;;;;;;;10.43;9.43;;;18.90;99.90;;;;;;5053902;28;20048;-80
2023/06/25 00:17:30;;;;;;;13.45;9.55;;;18.90;99.90;;;;;;5039958;28;20044;-80
2023/06/25 00:19:57;;;;;;;10.43;9.23;;;18.80;99.90;;;;;;5056474;28;20041;-80
2023/06/25 00:22:23;;;;;;;10.15;8.98;;;18.80;99.90;;;;;;5053293;28;20041;-81
2023/06/25 00:24:50;;;;;;;9.98;8.90;;;18.80;99.90;;;;;;5057175;28;20049;-81
2023/06/25 00:27:15;;;;;;;10.30;9.30;;;18.90;99.90;;;;;;5055543;28;20049;-81
2023/06/25 00:29:41;;;;;;;10.32;9.30;;;18.70;99.90;;;;;;5055398;28;20044;-82
2023/06/25 00:32:07;;;;;;;11.02;9.80;;;18.70;99.90;;;;;;5032777;28;20116;-81
2023/06/25 00:34:40;;;;;;;11.32;10.13;;;18.60;99.90;;;;;;5051088;28;20052;-81
2023/06/25 00:37:19;;;;;;;11.07;10.05;;;18.60;99.90;;;;;;5051075;28;20506;-81
2023/06/25 00:39:46;;;;;;;11.50;9.95;;;18.60;99.90;;;;;;5018105;28;20045;-81
2023/06/25 00:42:12;;;;;;;11.52;10.48;;;18.50;99.90;;;;;;5060438;28;20453;-80
2023/06/25 00:44:41;;;;;;;13.48;10.77;;;18.50;99.90;;;;;;5060730;28;20090;-81
2023/06/25 00:47:15;;;;;;;11.18;9.90;;;18.50;99.90;;;;;;5032644;28;20503;-81
2023/06/25 00:49:46;;;;;;;11.02;9.55;;;18.50;99.90;;;;;;5052725;28;20041;-82
2023/06/25 00:52:13;;;;;;;12.93;10.52;;;18.50;99.90;;;;;;5034708;28;20056;-82
2023/06/25 00:54:41;;;;;;;11.70;10.55;;;18.40;99.90;;;;;;5050169;28;20132;-81
2023/06/25 00:57:08;;;;;;;12.20;10.80;;;18.70;99.90;;;;;;5050723;28;20041;-81
2023/06/25 00:59:42;;;;;;;12.55;11.25;;;18.60;99.90;;;;;;5058332;28;20068;-81
2023/06/25 01:02:23;;;;;;;12.95;11.20;;;18.50;99.90;;;;;;5054641;28;20045;-82
2023/06/25 01:04:59;;;;;;;12.70;11.18;;;18.40;99.90;;;;;;5057381;28;20044;-81
2023/06/25 01:07:25;;;;;;;11.63;10.55;;;18.60;99.90;;;;;;5052995;28;20045;-82
2023/06/25 01:09:51;;;;;;;13.35;11.40;;;18.60;99.90;;;;;;5035504;28;20056;-82
2023/06/25 01:12:17;;;;;;;12.70;11.18;;;18.60;99.90;;;;;;5042058;28;20044;-82
2023/06/25 01:14:43;;;;;;;14.63;12.50;;;18.40;99.90;;;;;;5054367;28;20392;-82
2023/06/25 01:17:10;;;;;;;15.02;12.00;;;18.40;99.90;;;;;;5058171;28;20041;-82
2023/06/25 01:19:36;;;;;;;17.33;13.57;;;18.30;99.90;;;;;;5054200;28;20037;-82
2023/06/25 01:22:03;;;;;;;14.00;12.55;;;18.20;99.90;;;;;;5058795;28;20040;-82
2023/06/25 01:24:29;;;;;;;;;;;18.20;99.90;;;;;;5055665;28;20044;-82
2023/06/25 01:26:56;;;;;;;14.60;12.95;;;18.20;99.90;;;;;;5055868;28;19927;-82
2023/06/25 01:29:23;;;;;;;14.30;12.77;;;18.20;99.90;;;;;;5057131;28;20041;-81
2023/06/25 01:31:51;;;;;;;16.90;13.10;;;18.10;99.90;;;;;;5037524;28;20049;-82
2023/06/25 01:34:21;;;;;;;15.10;13.52;;;18.30;99.90;;;;;;5055951;28;20045;-82
2023/06/25 01:36:51;;;;;;;15.80;13.23;;;18.20;99.90;;;;;;5055354;28;20037;-82
2023/06/25 01:39:20;;;;;;;14.50;12.93;;;18.10;99.90;;;;;;5059890;28;20060;-82
2023/06/25 01:41:47;;;;;;;16.23;13.80;;;18.00;99.90;;;;;;5052691;28;20093;-80
2023/06/25 01:44:27;;;;;;;15.20;13.60;;;18.10;99.90;;;;;;5037097;28;20384;-82
2023/06/25 01:46:53;;;;;;;15.50;13.88;;;18.00;99.90;;;;;;5062891;28;20092;-82
2023/06/25 01:49:19;;;;;;;16.85;14.48;;;18.00;99.90;;;;;;5031850;28;20028;-83
2023/06/25 01:51:45;;;;;;;17.23;14.82;;;17.90;99.90;;;;;;5061095;28;20041;-83
2023/06/25 01:54:10;;;;;;;15.27;13.70;;;17.90;99.90;;;;;;5046715;28;20095;-83
2023/06/25 01:56:36;;;;;;;17.95;15.85;;;17.90;99.90;;;;;;5033538;28;20048;-83
2023/06/25 01:59:02;;;;;;;17.02;14.80;;;17.90;99.90;;;;;;5033070;28;20048;-82
2023/06/25 02:01:27;;;;;;;19.88;15.55;;;17.80;99.90;;;;;;5054674;28;20454;-82
2023/06/25 02:03:53;;;;;;;17.52;15.60;;;17.90;99.90;;;;;;5037405;28;20049;-82
2023/06/25 02:06:19;;;;;;;15.65;13.90;;;17.80;99.90;;;;;;5036448;28;20037;-82
2023/06/25 02:08:45;;;;;;;16.40;14.70;;;17.80;99.90;;;;;;5030531;28;20057;-82
2023/06/25 02:11:10;;;;;;;17.15;15.00;;;17.80;99.90;;;;;;5015091;28;20503;-82
2023/06/25 02:13:36;;;;;;;17.48;15.60;;;17.70;99.90;;;;;;5032212;28;20037;-82
2023/06/25 02:16:02;;;;;;;15.95;14.35;;;17.70;99.90;;;;;;5043487;28;20504;-83
2023/06/25 02:18:28;;;;;;;18.58;15.93;;;17.70;99.90;;;;;;5032197;28;20049;-82
2023/06/25 02:20:54;;;;;;;17.35;15.45;;;17.70;99.90;;;;;;5030971;28;20046;-83
2023/06/25 02:23:20;;;;;;;19.25;15.77;;;17.70;99.90;;;;;;5030806;28;20480;-83
2023/06/25 02:25:46;;;;;;;17.08;14.73;;;17.70;99.90;;;;;;5026119;28;20033;-84
2023/06/25 02:28:12;;;;;;;18.45;16.15;;;17.70;99.90;;;;;;5027718;28;20388;-83
2023/06/25 02:30:38;;;;;;;17.45;15.10;;;17.60;99.90;;;;;;5031621;28;20041;-83
2023/06/25 02:33:03;;;;;;;17.73;15.93;;;17.60;99.90;;;;;;5024953;28;20458;-83
2023/06/25 02:35:29;;;;;;;18.45;16.45;;;17.60;99.90;;;;;;5029326;28;20061;-83
2023/06/25 02:37:55;;;;;;;18.60;16.60;;;17.60;99.90;;;;;;5012789;28;20373;-84
2023/06/25 02:40:21;;;;;;;17.75;15.85;;;17.60;99.90;;;;;;5025860;28;20572;-84
2023/06/25 02:42:47;;;;;;;18.20;15.25;;;17.60;99.90;;;;;;5024246;28;20117;-83
2023/06/25 02:45:12;;;;;;;19.95;17.17;;;17.60;99.90;;;;;;5036998;28;20545;-84
2023/06/25 02:47:38;;;;;;;20.17;17.38;;;17.60;99.90;;;;;;5030417;28;20131;-82
2023/06/25 02:50:04;;;;;;;17.85;16.05;;;17.50;99.90;;;;;;5030237;28;20044;-82
2023/06/25 02:52:30;;;;;;;21.17;17.67;;;17.50;99.90;;;;;;5032064;28;20098;-82
2023/06/25 02:54:55;;;;;;;19.65;16.85;;;17.50;99.90;;;;;;5034793;28;20038;-83
2023/06/25 02:57:23;;;;;;;19.20;17.15;;;17.50;99.90;;;;;;5035094;28;20053;-83
2023/06/25 02:59:49;;;;;;;18.85;16.85;;;17.60;99.90;;;;;;5047799;28;20041;-83
2023/06/25 03:02:15;;;;;;;19.08;16.23;;;17.50;99.90;;;;;;5034658;28;20037;-82
2023/06/25 03:04:40;;;;;;;19.40;16.52;;;17.50;99.90;;;;;;5036309;28;20046;-83
2023/06/25 03:07:06;;;;;;;19.02;17.02;;;17.40;99.90;;;;;;5038370;28;20411;-81
2023/06/25 03:09:32;;;;;;;22.58;17.50;;;17.40;99.90;;;;;;5003357;28;20044;-83
2023/06/25 03:11:58;;;;;;;20.85;17.45;;;17.40;99.90;;;;;;5032674;28;20091;-83
2023/06/25 03:14:23;;;;;;;20.45;16.55;;;17.40;99.90;;;;;;5051036;28;20037;-83
2023/06/25 03:16:49;;;;;;;18.15;16.23;;;17.40;99.90;;;;;;5036405;28;20056;-83
2023/06/25 03:19:15;;;;;;;16.92;15.18;;;17.40;99.90;;;;;;5056768;28;20045;-83
2023/06/25 03:21:40;;;;;;;19.23;16.30;;;17.40;99.90;;;;;;5052452;28;20663;-83
2023/06/25 03:24:06;;;;;;;17.25;15.45;;;17.40;99.90;;;;;;5052479;28;20048;-83
2023/06/25 03:26:31;;;;;;;19.35;16.17;;;17.40;99.90;;;;;;5015322;28;20434;-83
2023/06/25 03:28:58;;;;;;;17.80;15.90;;;17.40;99.90;;;;;;5055496;28;20017;-83
2023/06/25 03:31:24;;;;;;;18.40;16.38;;;17.40;99.90;;;;;;5037030;28;20081;-84
2023/06/25 03:33:50;;;;;;;18.80;16.65;;;17.40;99.90;;;;;;5052116;28;20040;-83
2023/06/25 03:36:17;;;;;;;18.77;16.73;;;17.40;99.90;;;;;;5050341;28;20037;-83
2023/06/25 03:38:43;;;;;;;18.95;15.93;;;17.40;99.90;;;;;;5039885;28;20049;-82
2023/06/25 03:41:08;;;;;;;17.75;15.85;;;17.40;99.90;;;;;;5037877;28;20045;-83
2023/06/25 03:43:34;;;;;;;18.33;15.73;;;17.40;99.90;;;;;;5034239;28;20051;-83
2023/06/25 03:46:00;;;;;;;17.90;15.50;;;17.40;99.90;;;;;;5057564;28;20792;-83
2023/06/25 03:48:25;;;;;;;19.15;16.95;;;17.50;99.90;;;;;;5059479;28;20037;-83
2023/06/25 03:50:51;;;;;;;17.80;16.00;;;17.50;99.90;;;;;;5056173;28;20041;-82
2023/06/25 03:53:17;;;;;;;17.35;15.55;;;17.50;99.90;;;;;;5056770;28;20045;-81
2023/06/25 03:55:43;;;;;;;17.08;15.30;;;17.50;99.90;;;;;;5052246;28;20041;-84
2023/06/25 03:58:09;;;;;;;17.42;15.65;;;17.50;99.90;;;;;;5051765;28;20106;-84
2023/06/25 04:00:34;;;;;;;16.05;14.20;;;17.50;99.90;;;;;;5051182;28;20108;-84
2023/06/25 04:03:00;;;;;;;17.83;15.75;;;17.60;99.90;;;;;;5049955;28;20391;-83
2023/06/25 04:05:26;;;;;;;17.05;15.25;;;17.60;99.90;;;;;;5053137;28;20037;-83
2023/06/25 04:07:51;;;;;;;17.75;15.93;;;17.70;99.90;;;;;;5056418;28;20052;-83
2023/06/25 04:10:17;;;;;;;19.30;15.10;;;17.70;99.90;;;;;;5057813;28;20049;-83
2023/06/25 04:12:43;;;;;;;17.63;15.48;;;17.70;99.90;;;;;;5036142;28;20068;-83
2023/06/25 04:15:09;;;;;;;18.08;15.52;;;17.70;99.90;;;;;;5050084;28;20037;-83
2023/06/25 04:17:35;;;;;;;15.60;14.02;;;17.80;99.90;;;;;;5052625;28;20049;-83
2023/06/25 04:20:00;;;;;;;16.80;14.95;;;17.90;99.90;;;;;;5037212;28;20056;-82
2023/06/25 04:22:26;;;;;;;17.00;15.30;;;17.90;99.90;;;;;;5050849;28;20084;-83
2023/06/25 04:24:52;;;;;;;17.80;15.90;;;18.00;99.90;;;;;;5061673;28;20041;-83
2023/06/25 04:27:19;;;;;;;16.73;14.60;;;18.10;99.90;;;;;;5052807;28;20598;-83
2023/06/25 04:29:45;;;;;;;18.75;15.45;;;18.10;99.90;;;;;;5057553;28;20041;-83
2023/06/25 04:32:10;;;;;;;16.90;15.10;;;18.30;99.90;;;;;;5049816;28;20083;-83
2023/06/25 04:34:36;;;;;;;16.40;14.70;;;18.30;99.90;;;;;;5045614;28;20048;-83
2023/06/25 04:37:02;;;;;;;16.88;15.02;;;18.40;99.90;;;;;;5055211;28;20029;-83
2023/06/25 04:39:28;;;;;;;16.60;14.65;;;19.40;99.90;;;;;;5021040;28;20045;-84
2023/06/25 04:41:53;;;;;;;16.40;14.10;;;20.60;99.90;;;;;;5032614;28;20040;-83
2023/06/25 04:44:22;;;;;;;15.75;14.05;;;21.90;99.90;;;;;;5061398;28;20063;-83
2023/06/25 04:46:47;;;;;;;16.48;14.48;;;22.00;99.90;;;;;;5033611;28;20105;-83
2023/06/25 04:49:13;;;;;;;16.13;14.57;;;22.70;99.90;;;;;;5056771;28;20128;-83
2023/06/25 04:51:39;;;;;;;16.55;14.82;;;23.20;99.90;;;;;;5036540;28;20052;-83
2023/06/25 04:54:05;;;;;;;17.15;14.93;;;24.00;99.90;;;;;;5038922;28;20045;-83
2023/06/25 04:56:30;;;;;;;15.77;13.98;;;24.40;99.90;;;;;;5018299;28;20055;-82
2023/06/25 04:58:56;;;;;;;19.30;13.65;;;24.40;99.90;;;;;;5031791;28;20059;-84
2023/06/25 05:01:23;;;;;;;14.93;13.43;;;;;;;;;;5034063;28;20373;-85
2023/06/25 05:03:49;;;;;;;15.48;13.90;;;25.20;99.90;;;;;;5033693;28;20045;-84
2023/06/25 05:06:14;;;;;;;15.93;14.32;;;25.60;99.90;;;;;;5017228;28;20041;-85
2023/06/25 05:08:40;;;;;;;17.42;13.95;;;25.60;99.90;;;;;;5032919;28;20071;-86
2023/06/25 05:11:06;;;;;;;15.77;14.07;;;26.00;99.90;;;;;;5052891;28;20053;-85
2023/06/25 05:13:31;;;;;;;15.38;13.80;;;26.20;99.90;;;;;;5018578;28;20041;-84
2023/06/25 05:15:57;;;;;;;15.30;13.88;;;26.50;99.90;;;;;;5033164;28;20064;-84
2023/06/25 05:18:23;;;;;;;15.65;13.05;;;26.80;99.90;;;;;;5032884;28;20037;-84
2023/06/25 05:20:49;;;;;;;15.13;13.52;;;27.10;99.90;;;;;;5052056;28;20656;-84
2023/06/25 05:23:14;;;;;;;14.70;13.23;;;26.90;99.90;;;;;;5053023;28;20100;-84
2023/06/25 05:25:40;;;;;;;15.10;13.50;;;27.30;99.90;;;;;;5047647;28;20032;-84
2023/06/25 05:28:06;;;;;;;16.90;14.07;;;27.20;99.90;;;;;;5049035;28;20483;-84
2023/06/25 05:30:32;;;;;;;15.43;13.93;;;27.60;99.90;;;;;;5053688;28;20120;-84
2023/06/25 05:32:57;;;;;;;16.13;14.25;;;27.60;99.90;;;;;;5034474;28;20061;-84
2023/06/25 05:35:23;;;;;;;14.70;13.20;;;27.90;99.90;;;;;;5054408;28;20033;-83
2023/06/25 05:37:49;;;;;;;14.98;13.48;;;27.40;99.90;;;;;;5053246;28;20092;-83
2023/06/25 05:40:16;;;;;;;15.23;13.73;;;28.00;99.90;;;;;;5049129;28;20502;-85
2023/06/25 05:42:42;;;;;;;15.43;13.98;;;28.00;99.90;;;;;;5054384;28;20656;-85
2023/06/25 05:45:08;;;;;;;14.60;13.13;;;28.30;99.90;;;;;;5053642;28;20124;-84
2023/06/25 05:47:34;;;;;;;15.68;13.25;;;28.30;99.90;;;;;;5064848;28;20044;-83
2023/06/25 05:49:59;;;;;;;15.30;13.80;;;28.40;99.90;;;;;;5067669;28;20102;-79
2023/06/25 05:52:25;;;;;;;15.27;13.68;;;28.80;99.90;;;;;;5035229;28;20045;-82
2023/06/25 05:54:51;;;;;;;14.57;13.25;;;29.20;99.90;;;;;;5055787;28;20121;-82
2023/06/25 05:57:16;;;;;;;14.38;12.88;;;29.10;99.90;;;;;;5055308;28;20048;-80
2023/06/25 05:59:42;;;;;;;15.10;13.80;;;29.30;99.90;;;;;;5052271;28;20037;-81
2023/06/25 06:02:09;;;;;;;13.88;12.52;;;28.90;99.90;;;;;;5053509;28;20037;-80
2023/06/25 06:04:35;;;;;;;14.40;13.18;;;29.10;99.90;;;;;;5049637;28;20136;-80
2023/06/25 06:07:01;;;;;;;15.45;14.05;;;29.20;99.90;;;;;;5050372;28;20052;-80
2023/06/25 06:09:26;;;;;;;13.93;12.73;;;29.40;99.90;;;;;;5050544;28;20056;-79
2023/06/25 06:11:52;;;;;;;15.55;14.10;;;30.00;99.90;;;;;;5049365;28;20045;-79
2023/06/25 06:14:18;;;;;;;16.40;14.73;;;29.50;99.90;;;;;;5051057;28;20033;-79
2023/06/25 06:16:43;;;;;;;15.80;14.13;;;30.20;99.90;;;;;;5052396;28;20052;-84
2023/06/25 06:19:09;;;;;;;14.70;13.27;;;29.40;99.90;;;;;;5034121;28;20086;-81
2023/06/25 06:21:34;;;;;;;15.35;13.85;;;29.60;99.90;;;;;;5051414;28;20040;-80
2023/06/25 06:24:00;;;;;;;15.18;13.77;;;29.90;99.90;;;;;;5049523;28;20086;-80
2023/06/25 06:26:26;;;;;;;16.15;14.55;;;29.70;99.90;;;;;;5050046;28;20041;-79
2023/06/25 06:28:52;;;;;;;15.63;14.10;;;30.40;99.90;;;;;;5055068;28;20086;-80
2023/06/25 06:31:18;;;;;;;14.98;13.55;;;30.10;99.90;;;;;;5054101;28;20048;-79
2023/06/25 06:33:44;;;;;;;15.50;14.20;;;30.50;99.90;;;;;;5032469;28;20046;-80
2023/06/25 06:36:10;;;;;;;15.75;14.27;;;30.10;99.90;;;;;;5054740;28;20063;-79
2023/06/25 06:38:35;;;;;;;14.57;13.07;;;30.10;99.90;;;;;;5036302;28;20113;-79
2023/06/25 06:41:01;;;;;;;14.80;13.40;;;30.60;99.90;;;;;;5053337;28;20095;-80
2023/06/25 06:43:27;;;;;;;17.00;15.30;;;30.60;99.90;;;;;;5054212;28;20037;-79
2023/06/25 06:45:52;;;;;;;14.70;13.40;;;31.10;99.90;;;;;;5051941;28;20038;-80
2023/06/25 06:48:18;;;;;;;16.23;14.50;;;31.30;99.10;;;;;;5053033;28;20072;-80
2023/06/25 06:50:44;;;;;;;15.97;14.47;;;31.30;99.30;;;;;;5061567;28;20194;-80
2023/06/25 06:53:12;;;;;;;15.03;13.50;;;30.60;98.70;;;;;;5061403;28;20060;-79
2023/06/25 06:55:38;;;;;;;16.17;14.57;;;31.40;99.20;;;;;;5062471;28;20049;-79
2023/06/25 06:58:03;;;;;;;15.30;13.97;;;30.50;99.00;;;;;;5054659;28;20411;-80
2023/06/25 07:00:30;;;;;;;14.95;13.52;;;30.50;98.80;;;;;;5060262;28;20093;-80
2023/06/25 07:02:57;;;;;;;15.63;14.23;;;29.90;99.50;;;;;;5056926;28;20115;-80
2023/06/25 07:05:23;;;;;;;15.23;13.65;;;30.20;99.50;;;;;;5044897;28;20115;-80
2023/06/25 07:07:49;;;;;;;15.23;13.90;;;29.70;99.70;;;;;;5042113;28;20107;-79
2023/06/25 07:10:14;;;;;;;15.10;13.83;;;30.00;99.40;;;;;;5059425;28;20049;-80
2023/06/25 07:12:40;;;;;;;14.57;13.30;;;30.50;99.90;;;;;;5070454;28;20063;-79
2023/06/25 07:15:06;;;;;;;15.20;13.80;;;31.20;99.30;;;;;;5053895;28;20037;-80
2023/06/25 07:17:32;;;;;;;15.02;13.55;;;31.60;98.90;;;;;;5059512;28;20037;-80
2023/06/25 07:19:58;;;;;;;14.73;13.40;;;32.00;98.30;;;;;;5060737;28;20344;-80
2023/06/25 07:22:23;;;;;;;15.60;14.10;;;31.90;98.40;;;;;;5059947;28;20044;-79
2023/06/25 07:24:49;;;;;;;14.13;12.83;;;31.40;97.70;;;;;;5040486;28;20063;-80
2023/06/25 07:27:14;;;;;;;14.60;13.20;;;31.30;98.30;;;;;;5040661;28;20128;-80
2023/06/25 07:29:40;;;;;;;14.60;13.10;;;30.90;98.80;;;;;;5062605;28;20056;-80
2023/06/25 07:32:06;;;;;;;14.57;13.30;;;30.80;98.80;;;;;;5051912;28;20550;-79
2023/06/25 07:34:32;;;;;;;15.45;14.07;;;31.40;98.60;;;;;;5030154;28;20109;-79
2023/06/25 07:36:58;;;;;;;14.37;13.17;;;31.60;98.60;;;;;;5060454;28;20041;-79
2023/06/25 07:39:33;;;;;;;13.37;12.27;;;31.50;98.30;;;;;;5060520;28;20049;-79
2023/06/25 07:41:59;;;;;;;13.20;11.95;;;31.50;98.30;;;;;;5042815;28;20076;-80
2023/06/25 07:44:25;;;;;;;12.88;11.70;;;31.20;98.20;;;;;;5060769;28;20064;-79
2023/06/25 07:46:51;;;;;;;13.23;12.10;;;30.80;97.80;;;;;;5035209;28;20105;-80
2023/06/25 07:49:16;;;;;;;12.93;11.60;;;30.30;98.00;;;;;;5070059;28;20386;-79
2023/06/25 07:51:49;;;;;;;12.47;11.37;;;29.70;98.60;;;;;;5009625;28;20063;-80
2023/06/25 07:54:15;;;;;;;13.07;11.65;;;29.00;98.80;;;;;;5056871;28;20053;-79
2023/06/25 07:56:41;;;;;;;12.38;11.23;;;28.80;99.80;;;;;;5055840;28;20040;-80
2023/06/25 07:59:07;;;;;;;11.75;10.65;;;28.40;99.20;;;;;;5059062;28;20069;-79
2023/06/25 08:01:33;;;;;;;11.38;10.38;;;28.30;99.60;;;;;;5058200;28;20033;-79
2023/06/25 08:03:59;;;;;;;11.35;10.35;;;28.30;99.80;;;;;;5058539;28;20083;-79
2023/06/25 08:06:24;;;;;;;11.35;10.30;;;28.40;99.90;;;;;;5041534;28;20074;-79
2023/06/25 08:08:50;;;;;;;11.45;10.45;;;28.30;99.90;;;;;;5037840;28;20061;-79
2023/06/25 08:11:15;;;;;;;9.48;8.63;;;28.00;99.90;;;;;;5021755;28;20044;-79
2023/06/25 08:13:41;;;;;;;12.50;9.77;;;28.40;99.40;;;;;;5033229;28;20443;-79
2023/06/25 08:16:07;;;;;;;10.60;9.50;;;28.40;98.90;;;;;;5018057;28;20038;-79
2023/06/25 08:18:33;;;;;;;10.50;9.60;;;28.30;99.10;;;;;;5011149;28;20534;-79
2023/06/25 08:20:59;;;;;;;9.45;8.27;;;28.50;99.60;;;;;;5055398;28;20049;-79
2023/06/25 08:23:25;;;;;;;9.85;8.95;;;28.30;99.60;;;;;;5063916;28;20055;-79
2023/06/25 08:25:53;;;;;;;9.98;8.95;;;28.30;98.80;;;;;;5053146;28;20049;-79
2023/06/25 08:28:21;;;;;;;10.23;9.32;;;28.70;98.90;;;;;;5042042;28;20053;-79
2023/06/25 08:30:47;;;;;;;8.93;8.02;;;28.40;98.70;;;;;;5040429;28;20124;-80
2023/06/25 08:33:13;;;;;;;10.02;9.02;;;28.50;98.80;;;;;;5041970;28;20581;-79
2023/06/25 08:35:38;;;;;;;7.57;6.70;;;28.60;98.40;;;;;;5039915;28;20037;-79
2023/06/25 08:38:04;;;;;;;5.68;5.18;;;28.80;97.70;;;;;;5039263;28;20045;-79
2023/06/25 08:40:35;;;;;;;7.15;6.45;;;28.90;96.40;;;;;;5039454;28;20041;-79
2023/06/25 08:43:00;;;;;;;8.48;7.68;;;29.00;97.10;;;;;;5038726;28;20590;-79
2023/06/25 08:45:26;;;;;;;6.90;6.22;;;29.10;97.10;;;;;;5041251;28;20088;-79
2023/06/25 08:47:56;;;;;;;6.22;5.63;;;29.30;96.70;;;;;;5041910;28;20084;-79
2023/06/25 08:50:22;;;;;;;6.38;5.80;;;29.30;96.40;;;;;;5042050;28;20192;-79
2023/06/25 08:52:48;;;;;;;5.93;4.57;;;29.50;95.90;;;;;;5026462;28;20428;-79
2023/06/25 08:55:14;;;;;;;6.60;4.70;;;29.40;94.20;;;;;;5042341;28;20077;-80
2023/06/25 08:57:40;;;;;;;6.05;4.93;;;29.80;94.60;;;;;;5043461;28;20034;-79
2023/06/25 09:00:08;;;;;;;8.27;5.30;;;29.50;93.60;;;;;;5043446;28;20436;-80
2023/06/25 09:02:34;;;;;;;6.03;5.43;;;29.90;94.30;;;;;;5044584;28;20508;-79
2023/06/25 09:05:07;;;;;;;6.85;5.43;;;29.90;94.30;;;;;;5041342;28;20041;-80
2023/06/25 09:07:44;;;;;;;6.40;4.78;;;29.80;93.60;;;;;;5049713;28;20048;-79
2023/06/25 09:10:09;;;;;;;5.45;4.57;;;30.00;93.80;;;;;;5045236;28;20056;-79
2023/06/25 09:12:35;;;;;;;6.47;4.85;;;30.10;93.30;;;;;;5045779;28;20074;-80
2023/06/25 09:15:02;;;;;;;5.05;4.65;;;30.00;94.30;;;;;;5063361;28;20040;-79
2023/06/25 09:17:27;;;;;;;5.00;4.50;;;30.10;93.70;;;;;;5062376;28;20041;-79
2023/06/25 09:19:53;;;;;;;4.53;4.13;;;30.20;93.70;;;;;;5037066;28;20039;-79
2023/06/25 09:22:19;;;;;;;5.22;4.63;;;30.20;93.10;;;;;;5062380;28;20067;-79
2023/06/25 09:24:47;;;;;;;6.07;4.55;;;30.30;93.20;;;;;;5044614;28;20049;-79
2023/06/25 09:27:13;;;;;;;5.28;4.78;;;30.40;92.70;;;;;;5061775;28;20045;-79
2023/06/25 09:29:39;;;;;;;6.30;4.95;;;30.20;92.70;;;;;;5078814;28;20044;-79
2023/06/25 09:32:11;;;;;;;6.13;4.90;;;30.00;92.70;;;;;;5065873;28;20033;-79
2023/06/25 09:34:40;;;;;;;8.82;5.50;;;30.30;92.70;;;;;;5058751;28;20072;-80
2023/06/25 09:37:06;;;;;;;5.63;4.88;;;30.60;92.60;;;;;;5043142;28;20053;-79
2023/06/25 09:39:32;;;;;;;5.65;5.15;;;30.80;93.50;;;;;;5060600;28;20049;-80
2023/06/25 09:42:00;;;;;;;6.18;5.57;;;30.80;93.50;;;;;;5058370;28;20081;-80
2023/06/25 09:44:28;;;;;;;6.55;5.25;;;30.90;92.70;;;;;;5036997;28;20041;-80
2023/06/25 09:47:01;;;;;;;7.85;5.50;;;30.70;92.60;;;;;;5052154;28;20052;-80
2023/06/25 09:49:30;;;;;;;6.25;4.93;;;30.70;92.40;;;;;;5037271;28;20042;-79
2023/06/25 09:52:02;;;;;;;7.13;5.57;;;31.00;93.10;;;;;;5020718;28;20053;-79
2023/06/25 09:54:30;;;;;;;5.72;5.20;;;30.70;92.90;;;;;;5020018;28;20045;-79
2023/06/25 09:56:57;;;;;;;6.43;4.63;;;30.70;93.20;;;;;;5038853;28;20049;-79
2023/06/25 09:59:26;;;;;;;6.03;4.90;;;30.80;92.30;;;;;;5043053;28;20045;-80
2023/06/25 10:01:52;;;;;;;5.50;4.97;;;30.90;93.00;;;;;;5056919;28;20142;-79
2023/06/25 10:04:18;;;;;;;6.70;4.85;;;31.00;91.90;;;;;;5049736;28;20053;-79
2023/06/25 10:06:45;;;;;;;5.57;4.40;;;31.00;92.00;;;;;;5025565;28;20049;-80
2023/06/25 10:09:11;;;;;;;6.53;5.18;;;31.20;92.50;;;;;;5042110;28;20114;-79
2023/06/25 10:11:36;;;;;;;5.75;5.25;;;31.40;92.40;;;;;;5042766;28;20052;-79
2023/06/25 10:14:04;;;;;;;5.15;4.75;;;31.20;92.40;;;;;;5041538;28;20047;-79
2023/06/25 10:16:33;;;;;;;5.85;5.20;;;31.20;92.80;;;;;;5024123;28;20085;-80
2023/06/25 10:18:58;;;;;;;5.45;4.95;;;31.30;92.80;;;;;;5062190;28;20495;-79
2023/06/25 10:21:27;;;;;;;8.00;4.45;;;31.30;92.50;;;;;;5061480;28;20064;-79
2023/06/25 10:23:56;;;;;;;5.25;4.78;;;31.40;92.80;;;;;;5060219;28;20052;-79
2023/06/25 10:26:26;;;;;;;5.53;5.03;;;31.40;92.20;;;;;;5061712;28;20041;-79
2023/06/25 10:28:52;;;;;;;5.68;4.47;;;31.20;92.20;;;;;;5044418;28;20046;-79
2023/06/25 10:31:18;;;;;;;5.22;4.55;;;31.30;92.20;;;;;;5058809;28;20084;-80
2023/06/25 10:33:44;;;;;;;5.70;4.63;;;31.50;93.10;;;;;;5060367;28;20044;-79
2023/06/25 10:36:12;;;;;;;7.53;5.20;;;31.60;91.80;;;;;;5043132;28;20037;-79
2023/06/25 10:38:39;;;;;;;5.07;4.57;;;31.60;91.40;;;;;;5021820;28;20546;-79
2023/06/25 10:41:05;;;;;;;4.97;4.43;;;31.60;91.50;;;;;;5058199;28;20052;-79
2023/06/25 10:43:30;;;;;;;5.63;5.13;;;31.50;92.20;;;;;;5059283;28;20049;-79
2023/06/25 10:45:57;;;;;;;5.75;4.43;;;31.60;92.10;;;;;;5040135;28;20045;-80
2023/06/25 10:48:25;;;;;;;5.88;4.30;;;31.60;92.30;;;;;;5060453;28;20384;-80
2023/06/25 10:50:52;;;;;;;5.38;4.35;;;31.60;92.30;;;;;;5042011;28;20123;-79
2023/06/25 10:53:18;;;;;;;;;;;31.80;92.50;;;;;;5065127;28;20044;-79
2023/06/25 10:55:49;;;;;;;6.60;4.38;;;31.50;90.70;;;;;;5062703;28;20004;-80
2023/06/25 10:58:19;;;;;;;6.65;4.13;;;31.70;91.20;;;;;;5080391;28;20060;-79
2023/06/25 11:00:51;;;;;;;4.55;4.10;;;31.70;90.20;;;;;;5070575;28;20040;-80
2023/06/25 11:03:17;;;;;;;4.55;4.15;;;31.90;90.80;;;;;;5058204;28;20073;-79
2023/06/25 11:05:45;;;;;;;5.03;4.63;;;32.00;91.30;;;;;;5057066;28;20380;-79
2023/06/25 11:08:13;;;;;;;6.35;4.40;;;32.10;91.30;;;;;;5057627;28;20184;-80
2023/06/25 11:10:39;;;;;;;5.85;4.13;;;32.20;91.70;;;;;;5066942;28;20048;-79
2023/06/25 11:13:08;;;;;;;5.03;4.43;;;32.20;91.00;;;;;;5043274;28;20057;-79
2023/06/25 11:15:34;;;;;;;5.85;4.57;;;32.40;91.10;;;;;;5058523;28;20045;-80
2023/06/25 11:18:01;;;;;;;4.68;4.15;;;32.40;90.60;;;;;;5059281;28;20080;-79
2023/06/25 11:20:27;;;;;;;5.00;4.25;;;32.30;90.40;;;;;;5058975;28;20045;-79
2023/06/25 11:22:57;;;;;;;4.68;4.28;;;32.40;89.30;;;;;;5059397;28;20069;-80
2023/06/25 11:25:23;;;;;;;5.35;4.25;;;32.20;89.60;;;;;;5059514;28;20072;-80
2023/06/25 11:28:00;;;;;;;5.90;4.73;;;32.40;89.40;;;;;;5041825;28;20052;-80
2023/06/25 11:30:28;;;;;;;4.47;4.07;;;32.20;90.00;;;;;;5041725;28;20488;-80
2023/06/25 11:32:53;;;;;;;5.13;4.63;;;32.10;90.10;;;;;;5061348;28;20507;-79
2023/06/25 11:35:19;;;;;;;4.63;4.23;;;32.10;90.00;;;;;;5061208;28;20048;-79
2023/06/25 11:37:47;;;;;;;6.63;4.50;;;32.10;90.50;;;;;;5061088;28;20043;-79
2023/06/25 11:40:30;;;;;;;5.93;4.63;;;32.10;90.30;;;;;;5048248;28;20041;-80
2023/06/25 11:42:56;;;;;;;5.03;4.53;;;31.80;91.00;;;;;;5027670;28;20049;-80
2023/06/25 11:45:22;;;;;;;5.83;4.57;;;31.60;90.60;;;;;;5059763;28;20037;-79
2023/06/25 11:47:53;;;;;;;4.90;4.50;;;32.00;91.00;;;;;;5060490;28;20356;-79
2023/06/25 11:50:21;;;;;;;5.22;4.72;;;32.10;90.60;;;;;;5059996;28;20045;-79
2023/06/25 11:52:47;;;;;;;5.10;4.28;;;32.10;90.90;;;;;;5045691;28;20044;-80
2023/06/25 11:55:13;;;;;;;5.50;4.40;;;32.10;90.40;;;;;;5064097;28;20479;-79
2023/06/25 11:57:42;;;;;;;7.30;4.50;;;32.00;90.30;;;;;;5045242;28;20083;-80
2023/06/25 12:00:08;;;;;;;5.25;4.75;;;32.10;89.40;;;;;;5062310;28;20067;-80
2023/06/25 12:02:34;;;;;;;5.33;4.27;;;32.20;90.80;;;;;;5063303;28;20048;-79
2023/06/25 12:05:00;;;;;;;5.30;4.80;;;32.40;91.10;;;;;;5064237;28;20045;-80
2023/06/25 12:07:25;;;;;;;5.33;4.83;;;32.40;91.10;;;;;;5062774;28;20056;-79
2023/06/25 12:09:52;;;;;;;16.93;5.33;;;32.30;89.60;;;;;;5044937;28;20060;-80
2023/06/25 12:12:18;;;;;;;;;;;32.30;90.40;;;;;;5046477;28;20101;-79
2023/06/25 12:14:44;;;;;;;5.93;4.50;;;32.10;90.20;;;;;;5043805;28;19975;-79
2023/06/25 12:17:11;;;;;;;4.78;4.38;;;32.20;90.20;;;;;;5060869;28;20049;-79
2023/06/25 12:19:36;;;;;;;6.60;4.40;;;32.30;90.50;;;;;;5061622;28;20051;-79
2023/06/25 12:22:02;;;;;;;4.97;4.57;;;32.00;89.40;;;;;;5040308;28;20460;-79
2023/06/25 12:24:28;;;;;;;4.63;4.10;;;32.20;89.90;;;;;;5045864;28;20052;-79
2023/06/25 12:26:54;;;;;;;4.67;4.10;;;32.40;90.10;;;;;;5046049;28;20099;-79
2023/06/25 12:29:20;;;;;;;6.88;4.20;;;32.70;90.60;;;;;;5050608;28;20045;-80
2023/06/25 12:31:46;;;;;;;4.80;4.40;;;32.80;90.70;;;;;;5062011;28;20561;-79